WXM80 ListenWXM80 Stop

You find our weather info also at:

UK Metoffice

WeatherCloud

Weather Underground

Northeastern Weather Network

AWEKAS

Citizen Weather Observer Program (CWOP)

HAMweather, WeatherForYou, PWS Weather


Weather Underground History page Text

Daily Summary for August 22, 2017 Units:  English    Metric   Both
« Previous Day
Next Day »
Daily Weekly Monthly Yearly Custom
  High: Low: Average:
Temperature: 92.4 °F 73.5 °F 80.5 °F
Dew Point: 79.7 °F 70.3 °F 74.5 °F
Humidity: 95 % 62 % 83 %
Wind Speed: 5.8 mph 0.0 mph 1.8 mph
Wind Gust: 15.0 mph - -
Wind:- - SSW
Pressure: 30.04 in 29.69 in -
Precipitation: 0.06 in    
Historical Graphs
 
 
Tabular Data for August 22, 2017
Time Temperature Dew Point Pressure Wind Wind Speed Wind Gust Humidity Rainfall Rate (Hourly)
00:02 75.1 °F 71.3 °F 30.03 in SW 0.6 mph 2.3 mph 88 % 0.00 in
00:07 75.0 °F 71.2 °F 30.04 in WSW 1.6 mph 3.5 mph 88 % 0.00 in
00:12 75.0 °F 71.2 °F 30.04 in Calm     88 % 0.00 in
00:14 75.0 °F 71.2 °F 30.04 in Calm   1.2 mph 88 % 0.00 in
00:19 74.9 °F 71.1 °F 30.04 in SW 2.0 mph 4.6 mph 88 % 0.00 in
00:24 74.9 °F 71.1 °F 30.04 in SSW 0.7 mph 2.3 mph 88 % 0.00 in
00:29 74.8 °F 71.0 °F 30.03 in WSW 0.6 mph 3.5 mph 88 % 0.00 in
00:34 74.8 °F 71.0 °F 30.03 in WSW 0.6 mph 2.3 mph 88 % 0.00 in
00:39 74.8 °F 71.0 °F 30.03 in WSW 0.3 mph 2.3 mph 88 % 0.00 in
00:44 74.7 °F 70.9 °F 30.03 in WSW 0.6 mph 2.3 mph 88 % 0.00 in
00:49 74.6 °F 70.8 °F 30.03 in WSW 0.7 mph 3.5 mph 88 % 0.00 in
00:54 74.6 °F 70.8 °F 30.03 in WSW 1.8 mph 3.5 mph 88 % 0.00 in
00:59 74.5 °F 70.7 °F 30.03 in Calm   2.3 mph 88 % 0.00 in
01:04 74.4 °F 70.6 °F 30.02 in SW 0.9 mph 3.5 mph 88 % 0.00 in
01:09 74.4 °F 70.6 °F 30.02 in Calm   1.2 mph 88 % 0.00 in
01:14 74.3 °F 70.5 °F 30.02 in WSW 0.2 mph 1.2 mph 88 % 0.00 in
01:20 74.3 °F 70.5 °F 30.02 in WSW 1.3 mph 1.3 mph 88 % 0.00 in
01:25 74.2 °F 70.4 °F 30.02 in WSW 1.3 mph 2.3 mph 88 % 0.00 in
01:30 74.2 °F 70.4 °F 30.02 in SW 0.6 mph 2.3 mph 88 % 0.00 in
01:35 74.1 °F 70.3 °F 30.02 in SW 0.5 mph 2.3 mph 88 % 0.00 in
01:40 74.1 °F 70.3 °F 30.02 in SW 0.1 mph 1.2 mph 88 % 0.00 in
01:45 74.1 °F 70.6 °F 30.02 in Calm   1.0 mph 89 % 0.00 in
01:50 74.0 °F 70.6 °F 30.01 in SW 1.3 mph 3.5 mph 89 % 0.00 in
01:55 74.0 °F 70.6 °F 30.01 in SSW 1.0 mph 3.5 mph 89 % 0.00 in
02:00 74.0 °F 70.6 °F 30.01 in SW 1.2 mph 3.5 mph 89 % 0.00 in
02:05 74.0 °F 70.6 °F 30.01 in SSW 1.1 mph 3.5 mph 89 % 0.00 in
02:10 73.9 °F 70.5 °F 30.01 in WSW 1.4 mph 4.6 mph 89 % 0.00 in
02:15 73.9 °F 70.5 °F 30.00 in SSW 2.4 mph 3.5 mph 89 % 0.00 in
02:20 73.9 °F 70.5 °F 30.00 in West 0.4 mph 1.2 mph 89 % 0.00 in
02:25 73.9 °F 70.5 °F 30.00 in West 0.2 mph 2.3 mph 89 % 0.00 in
02:31 73.9 °F 70.8 °F 30.00 in Calm   2.0 mph 90 % 0.00 in
02:36 73.9 °F 70.8 °F 29.99 in Calm   1.0 mph 90 % 0.00 in
02:41 73.9 °F 70.8 °F 29.99 in Calm   3.0 mph 90 % 0.00 in
02:46 73.9 °F 70.8 °F 30.00 in West 1.0 mph 3.0 mph 90 % 0.00 in
02:51 73.8 °F 70.7 °F 30.00 in WSW 2.0 mph 3.0 mph 90 % 0.00 in
02:56 73.8 °F 70.7 °F 30.00 in SW 1.0 mph 3.0 mph 90 % 0.00 in
03:01 73.8 °F 70.7 °F 30.00 in SW 1.1 mph 2.0 mph 90 % 0.00 in
03:06 73.8 °F 71.0 °F 30.00 in SW 1.1 mph 2.3 mph 91 % 0.00 in
03:11 73.7 °F 70.9 °F 29.99 in Calm     91 % 0.00 in
03:16 73.7 °F 70.9 °F 29.99 in SW 0.7 mph 2.3 mph 91 % 0.00 in
03:21 73.7 °F 70.9 °F 29.99 in SW 0.9 mph 2.3 mph 91 % 0.00 in
03:26 73.7 °F 70.9 °F 29.99 in SSW 0.8 mph 3.0 mph 91 % 0.00 in
03:31 73.7 °F 70.9 °F 29.99 in SW 1.9 mph 4.0 mph 91 % 0.00 in
03:36 73.7 °F 71.2 °F 29.98 in SW 0.9 mph 2.0 mph 92 % 0.00 in
03:41 73.7 °F 71.2 °F 29.98 in SSW 0.4 mph 2.3 mph 92 % 0.00 in
03:46 73.7 °F 71.2 °F 29.98 in SW 1.2 mph 2.0 mph 92 % 0.00 in
03:48 73.7 °F 71.2 °F 29.98 in WSW 1.6 mph 3.5 mph 92 % 0.00 in
03:53 73.7 °F 71.2 °F 29.98 in SW 1.9 mph 3.5 mph 92 % 0.00 in
03:58 73.7 °F 71.2 °F 29.98 in SW 0.6 mph 3.5 mph 92 % 0.00 in
04:03 73.6 °F 71.1 °F 29.98 in SW 1.4 mph 3.5 mph 92 % 0.00 in
04:08 73.6 °F 71.1 °F 29.98 in SSW 2.5 mph 3.5 mph 92 % 0.00 in
04:13 73.6 °F 71.4 °F 29.98 in SW 0.6 mph 2.3 mph 93 % 0.00 in
04:18 73.6 °F 71.4 °F 29.97 in South 1.2 mph 3.5 mph 93 % 0.00 in
04:23 73.6 °F 71.4 °F 29.98 in West 0.3 mph 3.5 mph 93 % 0.00 in
04:28 73.6 °F 71.4 °F 29.97 in WSW 1.2 mph 3.5 mph 93 % 0.00 in
04:33 73.6 °F 71.4 °F 29.97 in Calm   1.2 mph 93 % 0.00 in
04:38 73.6 °F 71.4 °F 29.97 in WSW 0.3 mph 1.2 mph 93 % 0.00 in
04:43 73.5 °F 71.4 °F 29.97 in West 0.4 mph 1.2 mph 93 % 0.00 in
04:48 73.5 °F 71.4 °F 29.97 in West 0.3 mph 1.2 mph 93 % 0.00 in
04:53 73.5 °F 71.4 °F 29.97 in Calm     93 % 0.00 in
04:58 73.5 °F 71.7 °F 29.97 in SW 0.5 mph 2.0 mph 94 % 0.00 in
05:03 73.6 °F 71.8 °F 29.97 in WSW 0.5 mph 4.0 mph 94 % 0.00 in
05:08 73.6 °F 71.8 °F 29.98 in WSW 1.1 mph 3.5 mph 94 % 0.00 in
05:13 73.6 °F 71.8 °F 29.98 in Calm   1.2 mph 94 % 0.00 in
05:18 73.6 °F 71.8 °F 29.98 in WSW 0.2 mph 1.2 mph 94 % 0.00 in
05:23 73.6 °F 71.8 °F 29.97 in SW 0.6 mph 3.0 mph 94 % 0.00 in
05:28 73.6 °F 71.8 °F 29.97 in SW 0.3 mph 2.3 mph 94 % 0.00 in
05:34 73.7 °F 71.9 °F 29.97 in Calm   1.2 mph 94 % 0.00 in
05:39 73.6 °F 71.8 °F 29.97 in WSW 0.4 mph 2.3 mph 94 % 0.00 in
05:44 73.6 °F 71.8 °F 29.97 in WSW 0.5 mph 2.3 mph 94 % 0.00 in
05:49 73.6 °F 71.8 °F 29.97 in SSW 1.3 mph 3.5 mph 94 % 0.00 in
05:54 73.6 °F 71.8 °F 29.97 in SSW 0.1 mph 1.2 mph 94 % 0.00 in
05:59 73.6 °F 71.8 °F 29.97 in Calm   1.0 mph 94 % 0.00 in
06:04 73.6 °F 71.8 °F 29.97 in Calm     94 % 0.00 in
06:09 73.6 °F 71.8 °F 29.97 in Calm     94 % 0.00 in
06:14 73.5 °F 71.7 °F 29.97 in SW 0.3 mph 2.3 mph 94 % 0.00 in
06:19 73.5 °F 71.7 °F 29.97 in SW 0.8 mph 3.5 mph 94 % 0.00 in
06:24 73.5 °F 71.7 °F 29.97 in WSW 0.1 mph 2.3 mph 94 % 0.00 in
06:29 73.5 °F 72.0 °F 29.97 in WSW 0.1 mph 1.2 mph 95 % 0.00 in
06:34 73.6 °F 72.1 °F 29.97 in Calm     95 % 0.00 in
06:39 73.6 °F 72.1 °F 29.97 in Calm   1.0 mph 95 % 0.00 in
06:44 73.6 °F 72.1 °F 29.98 in SW 1.3 mph 3.0 mph 95 % 0.00 in
06:49 73.6 °F 72.1 °F 29.98 in SW 1.0 mph 1.2 mph 95 % 0.00 in
06:54 73.7 °F 72.2 °F 29.97 in Calm   1.2 mph 95 % 0.00 in
06:59 73.7 °F 72.2 °F 29.97 in SW 1.0 mph 2.0 mph 95 % 0.00 in
07:04 73.8 °F 72.3 °F 29.97 in SSW 2.5 mph 3.0 mph 95 % 0.00 in
07:09 73.8 °F 72.3 °F 29.97 in SSW 1.2 mph 2.0 mph 95 % 0.00 in
07:14 73.9 °F 72.4 °F 29.97 in Calm   2.3 mph 95 % 0.00 in
07:19 74.0 °F 72.5 °F 29.97 in West 1.4 mph 2.3 mph 95 % 0.00 in
07:24 74.0 °F 72.5 °F 29.97 in SW 0.6 mph 2.3 mph 95 % 0.00 in
07:29 74.1 °F 72.6 °F 29.97 in SW 1.1 mph 1.2 mph 95 % 0.00 in
07:34 74.2 °F 72.7 °F 29.97 in SW 0.2 mph   95 % 0.00 in
07:40 74.3 °F 72.8 °F 29.97 in SW 0.7 mph 2.3 mph 95 % 0.00 in
07:45 74.5 °F 73.0 °F 29.97 in SSW 1.7 mph 3.5 mph 95 % 0.00 in
07:50 74.6 °F 73.1 °F 29.96 in South 0.1 mph 2.3 mph 95 % 0.00 in
07:55 74.8 °F 73.3 °F 29.96 in Calm   1.2 mph 95 % 0.00 in
08:00 75.0 °F 73.5 °F 29.96 in South 0.4 mph 1.2 mph 95 % 0.00 in
08:05 75.1 °F 73.6 °F 29.96 in SW 1.1 mph 3.5 mph 95 % 0.00 in
08:10 75.3 °F 73.5 °F 29.96 in SW 2.2 mph 4.6 mph 94 % 0.00 in
08:15 75.5 °F 73.7 °F 29.96 in SW 2.2 mph 3.5 mph 94 % 0.00 in
08:20 75.7 °F 73.8 °F 29.97 in SSW 1.4 mph 6.9 mph 94 % 0.00 in
08:25 75.9 °F 74.0 °F 29.96 in WSW 1.3 mph 3.5 mph 94 % 0.00 in
08:30 76.1 °F 73.9 °F 29.96 in WSW 1.5 mph 5.0 mph 93 % 0.00 in
08:35 76.3 °F 74.1 °F 29.96 in SSW 1.5 mph 3.5 mph 93 % 0.00 in
08:40 76.5 °F 74.3 °F 29.95 in SW 1.1 mph 4.0 mph 93 % 0.00 in
08:45 76.7 °F 74.2 °F 29.95 in SW 1.4 mph 3.5 mph 92 % 0.00 in
08:50 77.0 °F 74.5 °F 29.95 in SW 1.8 mph 5.8 mph 92 % 0.00 in
08:56 77.3 °F 74.5 °F 29.95 in SW 1.3 mph 3.5 mph 91 % 0.00 in
09:01 77.6 °F 74.8 °F 29.95 in WSW 3.6 mph 5.8 mph 91 % 0.00 in
09:06 77.8 °F 74.6 °F 29.94 in South 0.1 mph 3.5 mph 90 % 0.00 in
09:11 78.0 °F 74.5 °F 29.95 in WSW 0.6 mph 1.2 mph 89 % 0.00 in
09:16 78.3 °F 74.8 °F 29.95 in SW 0.5 mph 2.3 mph 89 % 0.00 in
09:21 78.6 °F 74.7 °F 29.95 in SSE 0.4 mph 1.2 mph 88 % 0.00 in
09:26 78.9 °F 75.0 °F 29.95 in SE 1.5 mph 3.5 mph 88 % 0.00 in
09:31 79.2 °F 75.0 °F 29.94 in West 3.2 mph 5.8 mph 87 % 0.00 in
09:36 79.4 °F 75.2 °F 29.94 in SW 0.8 mph 3.5 mph 87 % 0.00 in
09:41 79.7 °F 75.1 °F 29.94 in SW 1.6 mph 3.5 mph 86 % 0.00 in
09:46 80.1 °F 75.5 °F 29.94 in SSW 2.7 mph 5.8 mph 86 % 0.00 in
09:51 80.5 °F 75.9 °F 29.94 in SSW 0.4 mph 2.3 mph 86 % 0.00 in
09:56 81.0 °F 75.7 °F 29.94 in ESE 0.4 mph 2.3 mph 84 % 0.00 in
10:01 81.6 °F 75.6 °F 29.94 in SE 0.4 mph 3.5 mph 82 % 0.00 in
10:06 82.0 °F 75.6 °F 29.94 in SSE 1.7 mph 4.6 mph 81 % 0.00 in
10:11 82.4 °F 76.0 °F 29.94 in West 0.9 mph 3.5 mph 81 % 0.00 in
10:16 82.5 °F 76.1 °F 29.94 in South 1.2 mph 3.5 mph 81 % 0.00 in
10:21 82.7 °F 75.9 °F 29.93 in South 1.3 mph 3.5 mph 80 % 0.00 in
10:26 82.9 °F 76.5 °F 29.93 in WSW 0.1 mph 2.0 mph 81 % 0.00 in
10:31 83.1 °F 76.3 °F 29.93 in WSW 3.2 mph 5.8 mph 80 % 0.00 in
10:36 83.3 °F 76.1 °F 29.93 in SW 3.3 mph 5.0 mph 79 % 0.00 in
10:41 83.6 °F 75.6 °F 29.93 in SE 0.6 mph 5.0 mph 77 % 0.00 in
10:46 84.0 °F 76.0 °F 29.93 in South 1.2 mph 3.5 mph 77 % 0.00 in
10:51 84.3 °F 76.3 °F 29.93 in SW 0.6 mph 3.5 mph 77 % 0.00 in
10:56 84.7 °F 76.7 °F 29.93 in SW 1.3 mph 3.5 mph 77 % 0.00 in
11:01 85.1 °F 76.3 °F 29.93 in SSE 2.1 mph 4.6 mph 75 % 0.00 in
11:06 85.6 °F 76.8 °F 29.93 in WSW 2.8 mph 4.0 mph 75 % 0.00 in
11:11 86.3 °F 77.8 °F 29.92 in WSW 1.1 mph 4.0 mph 76 % 0.00 in
11:16 86.7 °F 77.0 °F 29.92 in WSW 1.0 mph 4.6 mph 73 % 0.00 in
11:21 87.0 °F 77.3 °F 29.92 in SSW 1.0 mph 2.3 mph 73 % 0.00 in
11:26 87.4 °F 76.8 °F 29.92 in SW 0.7 mph 5.0 mph 71 % 0.00 in
11:31 87.9 °F 77.7 °F 29.92 in South 3.0 mph 6.9 mph 72 % 0.00 in
11:36 87.9 °F 76.9 °F 29.92 in SSW 3.7 mph 5.0 mph 70 % 0.00 in
11:41 88.1 °F 76.6 °F 29.92 in SW 1.1 mph 6.9 mph 69 % 0.00 in
11:46 88.2 °F 77.2 °F 29.92 in SSW 2.9 mph 6.9 mph 70 % 0.00 in
11:51 88.5 °F 77.0 °F 29.91 in SW 2.8 mph 5.8 mph 69 % 0.00 in
11:57 88.9 °F 78.3 °F 29.91 in SSW 0.6 mph 1.2 mph 71 % 0.00 in
12:02 89.1 °F 76.7 °F 29.91 in SSW 2.3 mph 4.6 mph 67 % 0.00 in
12:07 89.2 °F 76.8 °F 29.91 in SW 5.1 mph 12.7 mph 67 % 0.00 in
12:12 89.4 °F 77.4 °F 29.91 in SSW 2.2 mph 4.6 mph 68 % 0.00 in
12:17 89.4 °F 77.0 °F 29.90 in SSE 1.5 mph 4.6 mph 67 % 0.00 in
12:22 89.5 °F 77.1 °F 29.90 in SW 0.7 mph 2.3 mph 67 % 0.00 in
12:27 89.4 °F 77.0 °F 29.89 in SE 2.0 mph 4.6 mph 67 % 0.00 in
12:32 88.9 °F 76.1 °F 29.89 in SE 1.1 mph 3.5 mph 66 % 0.00 in
12:37 89.1 °F 77.6 °F 29.89 in WSW 2.2 mph 6.0 mph 69 % 0.00 in
12:42 89.5 °F 76.6 °F 29.89 in WSW 2.5 mph 5.8 mph 66 % 0.00 in
12:47 89.9 °F 77.5 °F 29.89 in WSW 4.0 mph 6.0 mph 67 % 0.00 in
12:52 90.1 °F 78.1 °F 29.89 in SW 1.7 mph 3.5 mph 68 % 0.00 in
12:57 90.5 °F 77.6 °F 29.89 in WSW 4.5 mph 8.0 mph 66 % 0.00 in
13:02 90.8 °F 77.4 °F 29.88 in SSW 1.8 mph 3.5 mph 65 % 0.00 in
13:07 91.0 °F 77.1 °F 29.88 in SW 3.6 mph 4.6 mph 64 % 0.00 in
13:12 91.5 °F 79.0 °F 29.88 in WSW 0.3 mph 1.2 mph 67 % 0.00 in
13:17 91.8 °F 78.4 °F 29.88 in SW 0.1 mph 2.3 mph 65 % 0.00 in
13:22 92.2 °F 78.3 °F 29.87 in South 2.1 mph 4.0 mph 64 % 0.00 in
13:27 92.3 °F 77.4 °F 29.87 in SE 0.8 mph 3.5 mph 62 % 0.00 in
13:32 92.4 °F 78.0 °F 29.87 in South 1.2 mph 3.5 mph 63 % 0.00 in
13:37 92.1 °F 77.7 °F 29.87 in SSW 2.0 mph 3.5 mph 63 % 0.00 in
13:42 91.8 °F 77.4 °F 29.86 in SE 0.3 mph 1.2 mph 63 % 0.00 in
13:47 91.4 °F 78.0 °F 29.87 in SSW 1.4 mph 4.0 mph 65 % 0.00 in
13:53 91.4 °F 78.4 °F 29.86 in West 2.3 mph 4.0 mph 66 % 0.00 in
13:58 91.5 °F 77.6 °F 29.86 in SSE 2.9 mph 6.9 mph 64 % 0.00 in
14:03 91.5 °F 79.0 °F 29.86 in WSW 2.5 mph 5.8 mph 67 % 0.00 in
14:08 91.8 °F 79.7 °F 29.86 in SE 0.8 mph 3.5 mph 68 % 0.00 in
14:13 91.4 °F 78.4 °F 29.85 in SSW 4.3 mph 9.2 mph 66 % 0.00 in
14:18 90.9 °F 78.4 °F 29.85 in South 2.9 mph 5.8 mph 67 % 0.00 in
14:23 90.5 °F 77.6 °F 29.84 in ESE 1.2 mph 2.3 mph 66 % 0.00 in
14:28 90.2 °F 77.8 °F 29.84 in South 4.8 mph 11.5 mph 67 % 0.00 in
14:33 89.7 °F 77.3 °F 29.84 in SSE 1.4 mph 4.6 mph 67 % 0.00 in
14:38 89.4 °F 77.4 °F 29.84 in South 0.9 mph 8.1 mph 68 % 0.00 in
14:43 89.2 °F 77.7 °F 29.83 in SSE 3.9 mph 8.1 mph 69 % 0.00 in
14:48 89.0 °F 77.5 °F 29.84 in SSE 4.7 mph 10.4 mph 69 % 0.00 in
14:53 88.7 °F 77.7 °F 29.83 in SSE 3.5 mph 5.0 mph 70 % 0.00 in
15:03 89.0 °F 77.9 °F 29.82 in SE 1.1 mph 3.5 mph 70 % 0.00 in
15:08 89.0 °F 77.5 °F 29.83 in South 1.5 mph 3.5 mph 69 % 0.00 in
15:13 89.1 °F 78.0 °F 29.82 in SSE 1.3 mph 4.0 mph 70 % 0.00 in
15:18 89.1 °F 78.5 °F 29.82 in SSE 2.1 mph 3.5 mph 71 % 0.00 in
15:24 89.2 °F 78.1 °F 29.82 in South 2.3 mph 5.8 mph 70 % 0.00 in
15:29 89.3 °F 78.2 °F 29.81 in ESE 0.5 mph 5.8 mph 70 % 0.00 in
15:34 89.5 °F 78.4 °F 29.81 in South 3.3 mph 7.0 mph 70 % 0.00 in
15:39 89.6 °F 78.9 °F 29.81 in SSE 2.6 mph 4.6 mph 71 % 0.00 in
15:44 89.6 °F 78.5 °F 29.80 in SW 2.2 mph 3.5 mph 70 % 0.00 in
15:49 89.6 °F 78.5 °F 29.80 in SSE 5.8 mph 11.5 mph 70 % 0.00 in
15:54 89.3 °F 78.2 °F 29.80 in South 2.4 mph 6.0 mph 70 % 0.00 in
15:59 89.3 °F 78.7 °F 29.79 in SW 3.7 mph 9.2 mph 71 % 0.00 in
16:04 89.5 °F 78.4 °F 29.79 in South 3.2 mph 6.9 mph 70 % 0.00 in
16:09 89.5 °F 78.4 °F 29.79 in SW 3.1 mph 5.8 mph 70 % 0.00 in
16:14 89.4 °F 78.3 °F 29.79 in WSW 1.7 mph 4.6 mph 70 % 0.00 in
16:19 89.0 °F 77.9 °F 29.79 in SSW 1.3 mph 4.6 mph 70 % 0.00 in
16:24 88.8 °F 78.2 °F 29.79 in SSW 1.8 mph 3.5 mph 71 % 0.00 in
16:29 88.4 °F 77.4 °F 29.78 in SE 2.4 mph 8.1 mph 70 % 0.00 in
16:34 88.0 °F 77.4 °F 29.78 in SSW 2.1 mph 4.0 mph 71 % 0.00 in
16:39 87.6 °F 77.9 °F 29.78 in SSE 1.9 mph 7.0 mph 73 % 0.00 in
16:44 87.6 °F 77.9 °F 29.78 in SSW 2.3 mph 5.8 mph 73 % 0.00 in
16:49 87.6 °F 77.9 °F 29.78 in SSE 3.0 mph 8.1 mph 73 % 0.00 in
16:59 86.8 °F 77.5 °F 29.77 in SSE 1.6 mph 4.6 mph 74 % 0.00 in
17:04 86.6 °F 77.7 °F 29.77 in SW 3.5 mph 5.8 mph 75 % 0.00 in
17:09 86.5 °F 77.2 °F 29.77 in SSW 2.0 mph 6.0 mph 74 % 0.00 in
17:14 86.2 °F 77.3 °F 29.77 in SE 5.1 mph 8.1 mph 75 % 0.00 in
17:19 86.1 °F 77.2 °F 29.77 in SSW 1.9 mph 5.0 mph 75 % 0.00 in
17:24 86.1 °F 77.2 °F 29.76 in South 3.6 mph 6.0 mph 75 % 0.00 in
17:29 85.9 °F 77.1 °F 29.76 in South 5.4 mph 10.4 mph 75 % 0.00 in
17:34 85.9 °F 77.1 °F 29.76 in South 3.8 mph 6.9 mph 75 % 0.00 in
17:39 85.8 °F 76.5 °F 29.76 in SSW 3.5 mph 6.9 mph 74 % 0.00 in
17:44 85.8 °F 77.0 °F 29.76 in SE 1.5 mph 4.6 mph 75 % 0.00 in
17:50 85.7 °F 76.9 °F 29.75 in SW 3.3 mph 5.0 mph 75 % 0.00 in
17:55 85.5 °F 76.7 °F 29.75 in SSW 1.2 mph 4.6 mph 75 % 0.00 in
18:00 85.3 °F 76.5 °F 29.75 in SSW 3.7 mph 5.8 mph 75 % 0.00 in
18:05 85.1 °F 76.7 °F 29.75 in SE 2.2 mph 8.1 mph 76 % 0.00 in
18:10 84.9 °F 76.5 °F 29.74 in West 2.4 mph 8.1 mph 76 % 0.00 in
18:15 84.7 °F 76.3 °F 29.74 in South 0.9 mph 3.5 mph 76 % 0.00 in
18:20 84.4 °F 76.4 °F 29.74 in South 3.7 mph 5.0 mph 77 % 0.00 in
18:25 84.2 °F 76.2 °F 29.74 in SSW 2.0 mph 5.0 mph 77 % 0.00 in
18:30 83.9 °F 76.3 °F 29.74 in SSW 1.4 mph 3.5 mph 78 % 0.00 in
18:35 83.7 °F 76.1 °F 29.74 in SSW 3.6 mph 6.9 mph 78 % 0.00 in
18:40 83.4 °F 76.2 °F 29.74 in SSW 3.0 mph 6.0 mph 79 % 0.00 in
18:45 83.1 °F 75.9 °F 29.74 in SSE 2.1 mph 5.0 mph 79 % 0.00 in
18:50 82.9 °F 75.7 °F 29.74 in SSW 1.6 mph 3.5 mph 79 % 0.00 in
18:55 82.7 °F 75.9 °F 29.74 in SSW 2.4 mph 3.5 mph 80 % 0.00 in
19:00 82.6 °F 75.8 °F 29.74 in SSW 2.7 mph 5.8 mph 80 % 0.00 in
19:05 82.4 °F 75.6 °F 29.74 in South 1.8 mph 5.8 mph 80 % 0.00 in
19:10 82.3 °F 75.9 °F 29.74 in SSW 4.6 mph 7.0 mph 81 % 0.00 in
19:16 82.2 °F 75.8 °F 29.74 in SSW 3.0 mph 6.0 mph 81 % 0.00 in
19:21 82.1 °F 75.7 °F 29.74 in SSW 3.0 mph 9.0 mph 81 % 0.00 in
19:26 81.9 °F 75.5 °F 29.74 in SSW 2.7 mph 6.0 mph 81 % 0.00 in
19:31 81.8 °F 75.4 °F 29.74 in South 2.0 mph 6.0 mph 81 % 0.00 in
19:36 81.6 °F 75.6 °F 29.74 in SSW 5.0 mph 12.0 mph 82 % 0.00 in
19:41 81.4 °F 75.4 °F 29.74 in SSW 2.9 mph 6.9 mph 82 % 0.00 in
19:46 81.3 °F 75.3 °F 29.74 in South 3.6 mph 5.8 mph 82 % 0.00 in
19:51 81.2 °F 75.2 °F 29.74 in South 3.3 mph 6.9 mph 82 % 0.00 in
19:56 81.0 °F 75.0 °F 29.74 in SSW 3.6 mph 8.1 mph 82 % 0.00 in
20:01 80.8 °F 75.2 °F 29.73 in South 2.8 mph 6.9 mph 83 % 0.00 in
20:06 80.7 °F 75.1 °F 29.73 in WSW 2.3 mph 5.8 mph 83 % 0.00 in
20:11 80.5 °F 74.9 °F 29.73 in SSW 1.5 mph 3.5 mph 83 % 0.00 in
20:16 80.4 °F 74.8 °F 29.73 in SSW 2.2 mph 4.6 mph 83 % 0.00 in
20:21 80.3 °F 74.7 °F 29.73 in SE 2.6 mph 6.9 mph 83 % 0.00 in
20:26 80.1 °F 74.8 °F 29.73 in South 1.9 mph 5.8 mph 84 % 0.00 in
20:31 80.0 °F 74.7 °F 29.73 in SSW 2.2 mph 4.0 mph 84 % 0.00 in
20:36 79.9 °F 74.6 °F 29.73 in SE 1.5 mph 5.0 mph 84 % 0.00 in
20:41 79.8 °F 74.5 °F 29.72 in SSE 1.0 mph 3.5 mph 84 % 0.00 in
20:46 79.7 °F 74.4 °F 29.72 in SSW 0.3 mph 3.5 mph 84 % 0.00 in
20:51 79.6 °F 74.3 °F 29.73 in SE 1.5 mph 4.0 mph 84 % 0.00 in
20:56 79.5 °F 74.2 °F 29.72 in SSW 3.2 mph 5.8 mph 84 % 0.00 in
21:01 79.4 °F 74.1 °F 29.71 in SSW 3.0 mph 5.0 mph 84 % 0.00 in
21:06 79.3 °F 74.0 °F 29.71 in ESE 1.3 mph 3.5 mph 84 % 0.00 in
21:11 79.2 °F 73.9 °F 29.71 in NW 1.5 mph 4.0 mph 84 % 0.00 in
21:16 79.2 °F 73.9 °F 29.71 in SSW 3.1 mph 9.2 mph 84 % 0.00 in
21:21 79.1 °F 73.8 °F 29.70 in SSW 2.8 mph 5.0 mph 84 % 0.00 in
21:26 79.0 °F 74.1 °F 29.70 in SSW 1.8 mph 4.6 mph 85 % 0.00 in
21:31 78.9 °F 74.0 °F 29.70 in South 1.0 mph 4.6 mph 85 % 0.00 in
21:36 78.9 °F 74.0 °F 29.71 in South 2.9 mph 4.0 mph 85 % 0.00 in
21:41 78.9 °F 74.0 °F 29.71 in SSW 2.1 mph 8.1 mph 85 % 0.00 in
21:46 78.8 °F 73.9 °F 29.71 in SSW 3.4 mph 6.9 mph 85 % 0.00 in
21:52 78.7 °F 74.2 °F 29.71 in South 1.7 mph 3.5 mph 86 % 0.00 in
21:57 78.7 °F 74.2 °F 29.71 in SSW 3.4 mph 4.6 mph 86 % 0.00 in
22:02 78.7 °F 74.2 °F 29.71 in SSW 4.2 mph 6.9 mph 86 % 0.00 in
22:07 78.7 °F 74.2 °F 29.70 in South 2.6 mph 4.6 mph 86 % 0.00 in
22:12 78.7 °F 74.2 °F 29.70 in SSW 2.9 mph 6.9 mph 86 % 0.00 in
22:17 78.7 °F 74.2 °F 29.70 in SSW 4.6 mph 8.0 mph 86 % 0.00 in
22:22 78.7 °F 74.2 °F 29.69 in SSW 1.7 mph 4.6 mph 86 % 0.00 in
22:27 78.7 °F 74.2 °F 29.69 in SSW 3.5 mph 6.9 mph 86 % 0.00 in
22:32 78.7 °F 74.2 °F 29.69 in South 1.8 mph 4.0 mph 86 % 0.00 in
22:37 78.6 °F 74.4 °F 29.69 in South 1.1 mph 3.5 mph 87 % 0.00 in
22:42 78.7 °F 74.5 °F 29.69 in South 3.7 mph 9.2 mph 87 % 0.00 in
22:47 78.6 °F 74.4 °F 29.69 in SW 2.1 mph 3.5 mph 87 % 0.00 in
22:52 78.5 °F 74.6 °F 29.69 in SSE 2.1 mph 4.6 mph 88 % 0.00 in
22:57 78.6 °F 74.7 °F 29.70 in South 4.4 mph 10.4 mph 88 % 0.00 in
23:02 78.5 °F 74.6 °F 29.70 in South 2.8 mph 3.5 mph 88 % 0.00 in
23:07 78.5 °F 74.6 °F 29.70 in South 3.2 mph 8.1 mph 88 % 0.00 in
23:12 78.5 °F 74.6 °F 29.70 in SSW 4.2 mph 7.0 mph 88 % 0.00 in
23:17 78.5 °F 74.6 °F 29.70 in SSW 5.7 mph 10.4 mph 88 % 0.00 in
23:22 78.5 °F 74.6 °F 29.70 in South 2.0 mph 15.0 mph 88 % 0.00 in
23:28 78.5 °F 75.0 °F 29.70 in WSW 4.9 mph 9.0 mph 89 % 0.00 in
23:33 78.4 °F 74.9 °F 29.71 in South 2.6 mph 11.5 mph 89 % 0.01 in
23:38 78.3 °F 75.1 °F 29.71 in SW 5.6 mph 8.0 mph 90 % 0.03 in
23:44 78.1 °F 74.9 °F 29.71 in SSW 1.6 mph 5.8 mph 90 % 0.04 in
23:49 77.9 °F 74.7 °F 29.72 in WSW 5.1 mph 9.0 mph 90 % 0.04 in
23:54 77.7 °F 74.9 °F 29.73 in SSE 5.1 mph 7.0 mph 91 % 0.05 in
23:59 77.4 °F 74.2 °F 29.73 in SSW 5.6 mph 10.4 mph 90 % 0.06 in
Crab Meadow Weather
Compliments of Weather Underground - 3 mb

Script developed by  Jim McMurry - jmcmurry@mwt.net Adapted for the template by  Wim van der Kuil - Leuven-Template.eu

Astronomy: The rings of Saturn are made of ice and rock.